createdAt,value
2022-12-25T00:01:24.618Z,2.21
2022-12-25T00:03:53.644Z,2.22
2022-12-25T00:06:22.493Z,2.23
2022-12-25T00:08:51.135Z,2.22
2022-12-25T00:11:20.991Z,2.21
2022-12-25T00:13:49.782Z,2.19
2022-12-25T00:16:26.360Z,2.17
2022-12-25T00:18:59.254Z,2.15
2022-12-25T00:21:28.719Z,2.14
2022-12-25T00:23:58.872Z,2.15
2022-12-25T00:26:28.052Z,2.14
2022-12-25T00:28:58.440Z,2.13
2022-12-25T00:31:27.821Z,2.11
2022-12-25T00:33:56.529Z,2.08
2022-12-25T00:36:25.195Z,2.07
2022-12-25T00:38:53.710Z,2.07
2022-12-25T00:41:42.743Z,2.07
2022-12-25T00:44:13.944Z,2.15
2022-12-25T00:46:43.112Z,2.12
2022-12-25T00:49:12.592Z,2.13
2022-12-25T00:51:41.405Z,2.12
2022-12-25T00:54:10.032Z,2.14
2022-12-25T00:56:38.600Z,2.14
2022-12-25T00:59:07.143Z,2.14
2022-12-25T01:01:36.518Z,2.16
2022-12-25T01:04:07.860Z,2.17
2022-12-25T01:06:37.459Z,2.17
2022-12-25T01:09:25.413Z,2.18
2022-12-25T01:11:54.231Z,2.20
2022-12-25T01:14:23.151Z,2.19
2022-12-25T01:16:51.864Z,2.19
2022-12-25T01:19:20.593Z,2.21
2022-12-25T01:21:49.110Z,2.21
2022-12-25T01:24:17.604Z,2.20
2022-12-25T01:26:47.081Z,2.20
2022-12-25T01:29:15.654Z,2.20
2022-12-25T01:31:45.063Z,2.22
2022-12-25T01:34:20.524Z,2.20
2022-12-25T01:36:49.163Z,2.26
2022-12-25T01:39:19.369Z,2.28
2022-12-25T01:41:48.647Z,2.31
2022-12-25T01:44:20.334Z,2.32
2022-12-25T01:46:49.249Z,2.32
2022-12-25T01:49:24.268Z,2.30
2022-12-25T01:52:02.195Z,2.29
2022-12-25T01:54:35.222Z,2.25
2022-12-25T01:57:08.973Z,2.22
2022-12-25T01:59:37.805Z,2.19
2022-12-25T02:02:06.419Z,2.15
2022-12-25T02:04:42.739Z,2.15
2022-12-25T02:07:16.617Z,2.14
2022-12-25T02:09:47.747Z,2.15
2022-12-25T02:12:34.517Z,2.15
2022-12-25T02:15:10.850Z,2.16
2022-12-25T02:17:48.818Z,2.16
2022-12-25T02:20:36.030Z,2.17
2022-12-25T02:23:42.374Z,2.21
2022-12-25T02:26:49.937Z,2.26
2022-12-25T02:29:29.980Z,2.32
2022-12-25T02:32:28.872Z,2.36
2022-12-25T02:35:19.200Z,2.36
2022-12-25T02:38:01.951Z,2.34
2022-12-25T02:40:57.516Z,2.34
2022-12-25T02:44:02.578Z,2.32
2022-12-25T02:46:50.906Z,2.34
2022-12-25T02:49:42.334Z,2.38
2022-12-25T02:52:34.940Z,2.44
2022-12-25T02:55:32.092Z,2.51
2022-12-25T02:58:26.002Z,2.56
2022-12-25T03:01:28.063Z,2.59
2022-12-25T03:04:20.083Z,2.61
2022-12-25T03:07:11.116Z,2.59
2022-12-25T03:10:12.796Z,2.58
2022-12-25T03:13:04.809Z,2.56
2022-12-25T03:15:52.613Z,2.51
2022-12-25T03:18:24.591Z,2.47
2022-12-25T03:21:13.274Z,2.45
2022-12-25T03:24:10.391Z,2.43
2022-12-25T03:26:57.638Z,2.43
2022-12-25T03:29:51.611Z,2.44
2022-12-25T03:32:40.202Z,2.45
2022-12-25T03:35:25.887Z,2.51
2022-12-25T03:38:42.453Z,2.58
2022-12-25T03:41:46.523Z,2.65
2022-12-25T03:45:18.244Z,2.66
2022-12-25T03:48:07.717Z,2.66
2022-12-25T03:51:09.598Z,2.68
2022-12-25T03:54:08.643Z,2.71
2022-12-25T03:56:56.665Z,2.76
2022-12-25T03:59:44.098Z,2.80
2022-12-25T04:02:30.932Z,2.81
2022-12-25T04:05:18.166Z,2.83
2022-12-25T04:08:05.033Z,2.86
2022-12-25T04:10:52.037Z,2.88
2022-12-25T04:13:39.026Z,2.89
2022-12-25T04:16:26.805Z,2.91
2022-12-25T04:19:14.067Z,2.92
2022-12-25T04:22:00.947Z,2.92
2022-12-25T04:24:47.728Z,2.91
2022-12-25T04:27:34.506Z,2.94
2022-12-25T04:30:21.397Z,2.98
2022-12-25T04:33:08.484Z,3.01
2022-12-25T04:35:55.210Z,3.05
2022-12-25T04:38:24.745Z,3.10
2022-12-25T04:40:53.486Z,3.12
2022-12-25T04:43:25.427Z,3.16
2022-12-25T04:45:59.509Z,3.24
2022-12-25T04:48:30.684Z,3.32
2022-12-25T04:51:16.788Z,3.39
2022-12-25T04:53:45.991Z,3.46
2022-12-25T04:56:15.195Z,3.53
2022-12-25T04:58:44.912Z,3.60
2022-12-25T05:01:14.254Z,3.65
2022-12-25T05:03:43.238Z,3.70
2022-12-25T05:06:13.017Z,3.72
2022-12-25T05:08:41.643Z,3.74
2022-12-25T05:11:13.641Z,3.75
2022-12-25T05:13:42.701Z,3.79
2022-12-25T05:16:18.776Z,3.90
2022-12-25T05:18:52.184Z,4.10
2022-12-25T05:21:20.806Z,4.33
2022-12-25T05:23:53.337Z,4.54
2022-12-25T05:26:25.638Z,4.75
2022-12-25T05:28:55.331Z,4.87
2022-12-25T05:31:23.905Z,4.98
2022-12-25T05:33:53.448Z,5.05
2022-12-25T05:36:21.999Z,5.12
2022-12-25T05:38:51.629Z,5.17
2022-12-25T05:41:20.312Z,5.22
2022-12-25T05:43:48.812Z,5.27
2022-12-25T05:46:18.087Z,5.30
2022-12-25T05:48:46.913Z,5.32
2022-12-25T05:51:15.669Z,5.35
2022-12-25T05:53:44.313Z,5.37
2022-12-25T05:56:12.986Z,5.38
2022-12-25T05:58:41.630Z,5.38
2022-12-25T06:01:13.966Z,5.38
2022-12-25T06:03:42.611Z,5.39
2022-12-25T06:06:12.170Z,5.39
2022-12-25T06:08:41.471Z,5.41
2022-12-25T06:11:11.833Z,5.42
2022-12-25T06:13:40.879Z,5.43
2022-12-25T06:16:12.666Z,5.44
2022-12-25T06:18:46.052Z,5.44
2022-12-25T06:21:16.072Z,5.44
2022-12-25T06:23:45.463Z,5.45
2022-12-25T06:26:20.379Z,5.45
2022-12-25T06:28:50.675Z,5.45
2022-12-25T06:31:23.372Z,5.45
2022-12-25T06:33:52.150Z,5.45
2022-12-25T06:36:24.385Z,5.44
2022-12-25T06:38:53.984Z,5.45
2022-12-25T06:41:28.073Z,5.45
2022-12-25T06:44:01.514Z,5.44
2022-12-25T06:46:31.199Z,5.44
2022-12-25T06:49:00.041Z,5.44
2022-12-25T06:51:31.520Z,5.43
2022-12-25T06:54:04.068Z,5.44
2022-12-25T06:56:34.312Z,5.44
2022-12-25T06:59:07.098Z,5.45
2022-12-25T07:01:40.649Z,5.46
2022-12-25T07:04:20.018Z,5.47
2022-12-25T07:06:48.743Z,5.47
2022-12-25T07:09:17.171Z,5.46
2022-12-25T07:11:45.889Z,5.45
2022-12-25T07:14:24.310Z,5.45
2022-12-25T07:16:53.312Z,5.45
2022-12-25T07:19:24.837Z,5.45
2022-12-25T07:21:57.747Z,5.44
2022-12-25T07:24:26.281Z,5.43
2022-12-25T07:26:54.667Z,5.42
2022-12-25T07:29:23.059Z,5.41
2022-12-25T07:31:51.604Z,5.41
2022-12-25T07:34:20.619Z,5.41
2022-12-25T07:36:49.817Z,5.42
2022-12-25T07:39:19.087Z,5.42
2022-12-25T07:41:48.112Z,5.43
2022-12-25T07:44:16.736Z,5.45
2022-12-25T07:46:45.928Z,5.47
2022-12-25T07:49:14.850Z,5.48
2022-12-25T07:51:43.361Z,5.50
2022-12-25T07:54:12.025Z,5.49
2022-12-25T07:56:40.657Z,5.49
2022-12-25T07:59:09.187Z,5.49
2022-12-25T08:01:37.859Z,5.49
2022-12-25T08:04:08.137Z,5.49
2022-12-25T08:06:38.261Z,5.50
2022-12-25T08:09:10.961Z,5.50
2022-12-25T08:11:40.569Z,5.50
2022-12-25T08:14:09.693Z,5.49
2022-12-25T08:16:42.446Z,5.49
2022-12-25T08:19:11.609Z,5.52
2022-12-25T08:21:40.944Z,5.52
2022-12-25T08:24:09.755Z,5.52
2022-12-25T08:26:38.283Z,5.51
2022-12-25T08:29:06.991Z,5.52
2022-12-25T08:31:39.434Z,5.53
2022-12-25T08:34:12.052Z,5.54
2022-12-25T08:36:42.174Z,5.56
2022-12-25T08:39:11.003Z,5.58
2022-12-25T08:41:40.825Z,5.61
2022-12-25T08:44:13.027Z,5.63
2022-12-25T08:46:43.015Z,5.65
2022-12-25T08:49:11.988Z,5.67
2022-12-25T08:51:45.011Z,5.67
2022-12-25T08:54:14.061Z,5.66
2022-12-25T08:56:42.981Z,5.67
2022-12-25T08:59:12.307Z,5.68
2022-12-25T09:01:42.229Z,5.68
2022-12-25T09:04:10.838Z,5.69
2022-12-25T09:06:39.400Z,5.69
2022-12-25T09:09:08.016Z,5.68
2022-12-25T09:11:37.165Z,5.68
2022-12-25T09:14:05.979Z,5.67
2022-12-25T09:16:34.655Z,5.66
2022-12-25T09:19:03.171Z,5.66
2022-12-25T09:21:32.141Z,5.66
2022-12-25T09:24:01.269Z,5.68
2022-12-25T09:26:54.920Z,5.70
2022-12-25T09:29:23.546Z,5.72
2022-12-25T09:31:52.225Z,5.75
2022-12-25T09:34:20.923Z,5.77
2022-12-25T09:36:49.582Z,5.78
2022-12-25T09:39:18.400Z,5.80
2022-12-25T09:42:18.055Z,5.82
2022-12-25T09:45:10.218Z,5.83
2022-12-25T09:47:42.511Z,5.85
2022-12-25T09:50:23.671Z,5.87
2022-12-25T09:53:04.163Z,5.89
2022-12-25T09:55:39.024Z,5.92
2022-12-25T09:58:13.779Z,5.94
2022-12-25T10:00:52.322Z,5.96
2022-12-25T10:03:53.053Z,6.00
2022-12-25T10:06:32.171Z,6.03
2022-12-25T10:09:17.724Z,6.06
2022-12-25T10:11:49.650Z,6.08
2022-12-25T10:14:36.981Z,6.10
2022-12-25T10:17:20.946Z,6.13
2022-12-25T10:20:14.475Z,6.16
2022-12-25T10:22:49.053Z,6.20
2022-12-25T10:25:23.140Z,6.24
2022-12-25T10:28:01.360Z,6.28
2022-12-25T10:30:31.795Z,6.35
2022-12-25T10:33:00.601Z,6.41
2022-12-25T10:35:30.110Z,6.48
2022-12-25T10:38:10.896Z,6.53
2022-12-25T10:41:06.688Z,6.58
2022-12-25T10:43:47.849Z,6.63
2022-12-25T10:46:17.124Z,6.68
2022-12-25T10:48:52.435Z,6.71
2022-12-25T10:51:39.165Z,6.76
2022-12-25T10:54:27.345Z,6.79
2022-12-25T10:57:02.075Z,6.83
2022-12-25T10:59:42.700Z,6.87
2022-12-25T11:02:31.414Z,6.92
2022-12-25T11:05:10.060Z,7.00
2022-12-25T11:07:54.563Z,7.05
2022-12-25T11:10:35.721Z,7.11
2022-12-25T11:13:16.490Z,7.15
2022-12-25T11:15:49.026Z,7.20
2022-12-25T11:18:20.100Z,7.25
2022-12-25T11:21:00.992Z,7.29
2022-12-25T11:23:32.353Z,7.31
2022-12-25T11:26:08.959Z,7.33
2022-12-25T11:28:41.317Z,7.35
2022-12-25T11:31:40.382Z,7.38
2022-12-25T11:34:31.469Z,7.40
2022-12-25T11:37:01.822Z,7.41
2022-12-25T11:39:36.360Z,7.44
2022-12-25T11:42:14.008Z,7.45
2022-12-25T11:45:03.788Z,7.47
2022-12-25T11:47:40.705Z,7.47
2022-12-25T11:50:37.043Z,7.52
2022-12-25T11:53:14.007Z,7.56
2022-12-25T11:55:55.040Z,7.59
2022-12-25T11:58:36.650Z,7.59
2022-12-25T12:01:34.056Z,7.60
2022-12-25T12:04:08.963Z,7.60
2022-12-25T12:07:08.866Z,7.60
2022-12-25T12:10:06.034Z,7.58
2022-12-25T12:12:54.205Z,7.56
2022-12-25T12:15:31.493Z,7.56
2022-12-25T12:18:28.770Z,7.52
2022-12-25T12:21:03.090Z,7.48
2022-12-25T12:23:47.155Z,7.43
2022-12-25T12:26:25.890Z,7.39
2022-12-25T12:29:00.010Z,7.38
2022-12-25T12:31:44.648Z,7.36
2022-12-25T12:34:43.017Z,7.32
2022-12-25T12:37:31.499Z,7.29
2022-12-25T12:40:00.429Z,7.26
2022-12-25T12:42:33.715Z,7.22
2022-12-25T12:45:17.091Z,7.20
2022-12-25T12:47:49.574Z,7.17
2022-12-25T12:50:37.055Z,7.16
2022-12-25T12:53:33.626Z,7.14
2022-12-25T12:56:14.301Z,7.14
2022-12-25T12:58:51.045Z,7.15
2022-12-25T13:01:27.923Z,7.14
2022-12-25T13:04:25.133Z,7.16
2022-12-25T13:07:11.424Z,7.16
2022-12-25T13:09:53.364Z,7.18
2022-12-25T13:12:22.869Z,7.18
2022-12-25T13:14:51.445Z,7.17
2022-12-25T13:17:25.690Z,7.15
2022-12-25T13:20:00.333Z,7.19
2022-12-25T13:22:36.893Z,7.22
2022-12-25T13:25:10.210Z,7.20
2022-12-25T13:27:38.941Z,7.20
2022-12-25T13:30:20.278Z,7.18
2022-12-25T13:32:49.554Z,7.15
2022-12-25T13:35:19.405Z,7.14
2022-12-25T13:37:48.115Z,7.13
2022-12-25T13:40:27.881Z,7.12
2022-12-25T13:43:00.476Z,7.10
2022-12-25T13:45:31.747Z,7.08
2022-12-25T13:48:16.477Z,7.06
2022-12-25T13:50:48.698Z,7.04
2022-12-25T13:53:18.213Z,7.01
2022-12-25T13:55:54.494Z,6.99
2022-12-25T13:58:35.102Z,6.97
2022-12-25T14:01:04.008Z,6.94
2022-12-25T14:03:41.096Z,6.93
2022-12-25T14:06:30.385Z,6.91
2022-12-25T14:08:59.787Z,6.91
2022-12-25T14:11:30.159Z,6.89
2022-12-25T14:14:24.889Z,6.87
2022-12-25T14:16:57.540Z,6.86
2022-12-25T14:19:32.259Z,6.85
2022-12-25T14:22:21.533Z,6.87
2022-12-25T14:24:50.406Z,6.85
2022-12-25T14:27:30.708Z,6.84
2022-12-25T14:30:01.156Z,6.82
2022-12-25T14:32:34.375Z,6.79
2022-12-25T14:35:06.362Z,6.75
2022-12-25T14:37:40.445Z,6.71
2022-12-25T14:40:31.190Z,6.68
2022-12-25T14:43:06.265Z,6.64
2022-12-25T14:45:40.712Z,6.59
2022-12-25T14:48:25.219Z,6.55
2022-12-25T14:51:09.444Z,6.49
2022-12-25T14:53:46.962Z,6.43
2022-12-25T14:56:26.083Z,6.39
2022-12-25T14:58:59.836Z,6.34
2022-12-25T15:01:32.845Z,6.27
2022-12-25T15:04:10.551Z,6.24
2022-12-25T15:06:41.783Z,6.21
2022-12-25T15:09:15.489Z,6.17
2022-12-25T15:11:51.034Z,6.11
2022-12-25T15:14:19.705Z,6.07
2022-12-25T15:16:58.729Z,6.03
2022-12-25T15:19:36.961Z,5.99
2022-12-25T15:22:07.020Z,5.95
2022-12-25T15:24:35.636Z,5.91
2022-12-25T15:27:05.570Z,5.87
2022-12-25T15:32:24.461Z,5.80
2022-12-25T15:34:53.957Z,5.75
2022-12-25T15:37:22.599Z,5.70
2022-12-25T15:39:51.124Z,5.66
2022-12-25T15:42:23.661Z,5.63
2022-12-25T15:44:52.350Z,5.60
2022-12-25T15:47:21.271Z,5.58
2022-12-25T15:49:49.808Z,5.56
2022-12-25T15:52:18.553Z,5.53
2022-12-25T15:54:47.110Z,5.51
2022-12-25T15:57:22.332Z,5.49
2022-12-25T15:59:50.975Z,5.45
2022-12-25T16:02:21.453Z,5.41
2022-12-25T16:04:51.337Z,5.38
2022-12-25T16:07:25.173Z,5.36
2022-12-25T16:09:53.739Z,5.34
2022-12-25T16:12:22.350Z,5.32
2022-12-25T16:14:51.156Z,5.30
2022-12-25T16:17:19.902Z,5.30
2022-12-25T16:19:48.735Z,5.27
2022-12-25T16:22:26.018Z,5.24
2022-12-25T16:24:55.247Z,5.22
2022-12-25T16:27:23.975Z,5.19
2022-12-25T16:29:52.598Z,5.17
2022-12-25T16:32:21.190Z,5.14
2022-12-25T16:34:49.759Z,5.11
2022-12-25T16:37:18.594Z,5.08
2022-12-25T16:39:47.171Z,5.04
2022-12-25T16:42:16.315Z,4.99
2022-12-25T16:44:45.235Z,4.93
2022-12-25T16:47:14.222Z,4.86
2022-12-25T16:49:43.010Z,4.79
2022-12-25T16:52:11.855Z,4.72
2022-12-25T16:54:40.595Z,4.66
2022-12-25T16:57:09.266Z,4.62
2022-12-25T16:59:37.882Z,4.58
2022-12-25T17:02:06.973Z,4.53
2022-12-25T17:04:36.244Z,4.49
2022-12-25T17:07:04.871Z,4.46
2022-12-25T17:09:35.429Z,4.44
2022-12-25T17:12:09.124Z,4.42
2022-12-25T17:14:37.856Z,4.42
2022-12-25T17:17:06.475Z,4.41
2022-12-25T17:19:35.328Z,4.40
2022-12-25T17:22:04.022Z,4.40
2022-12-25T17:24:35.285Z,4.39
2022-12-25T17:27:04.067Z,4.39
2022-12-25T17:29:32.650Z,4.38
2022-12-25T17:32:01.301Z,4.39
2022-12-25T17:34:29.980Z,4.40
2022-12-25T17:36:58.795Z,4.42
2022-12-25T17:39:27.952Z,4.46
2022-12-25T17:41:56.631Z,4.49
2022-12-25T17:44:25.992Z,4.54
2022-12-25T17:46:54.741Z,4.60
2022-12-25T17:49:23.598Z,4.66
2022-12-25T17:51:54.024Z,4.70
2022-12-25T17:54:22.644Z,4.78
2022-12-25T17:56:51.685Z,4.83
2022-12-25T17:59:29.180Z,4.87
2022-12-25T18:01:58.212Z,4.90
2022-12-25T18:04:27.015Z,4.93
2022-12-25T18:06:55.797Z,4.97
2022-12-25T18:09:24.938Z,4.98
2022-12-25T18:11:53.685Z,5.00
2022-12-25T18:14:22.635Z,5.02
2022-12-25T18:16:53.000Z,5.01
2022-12-25T18:19:21.937Z,5.00
2022-12-25T18:21:51.300Z,4.97
2022-12-25T18:24:19.902Z,4.94
2022-12-25T18:26:51.575Z,4.88
2022-12-25T18:29:20.267Z,4.82
2022-12-25T18:31:49.053Z,4.76
2022-12-25T18:34:18.448Z,4.71
2022-12-25T18:36:47.161Z,4.66
2022-12-25T18:39:15.933Z,4.60
2022-12-25T18:42:34.842Z,4.55
2022-12-25T18:45:03.629Z,4.46
2022-12-25T18:47:33.571Z,4.37
2022-12-25T18:50:02.439Z,4.31
2022-12-25T18:52:49.405Z,4.26
2022-12-25T18:55:20.078Z,4.21
2022-12-25T18:57:50.255Z,4.19
2022-12-25T19:00:19.788Z,4.17
2022-12-25T19:02:48.856Z,4.15
2022-12-25T19:05:17.780Z,4.15
2022-12-25T19:07:47.645Z,4.13
2022-12-25T19:10:16.269Z,4.12
2022-12-25T19:12:45.057Z,4.11
2022-12-25T19:15:14.164Z,4.10
2022-12-25T19:17:43.439Z,4.08
2022-12-25T19:20:12.860Z,4.05
2022-12-25T19:22:41.558Z,4.02
2022-12-25T19:25:10.521Z,3.99
2022-12-25T19:27:39.117Z,3.99
2022-12-25T19:30:09.877Z,3.98
2022-12-25T19:32:39.532Z,4.01
2022-12-25T19:35:08.513Z,4.01
2022-12-25T19:37:37.210Z,4.03
2022-12-25T19:40:07.269Z,4.03
2022-12-25T19:42:36.228Z,4.05
2022-12-25T19:45:06.605Z,4.08
2022-12-25T19:47:35.349Z,4.10
2022-12-25T19:50:04.254Z,4.13
2022-12-25T19:52:36.118Z,4.14
2022-12-25T19:55:05.261Z,4.12
2022-12-25T19:57:33.930Z,4.10
2022-12-25T20:00:03.316Z,4.06
2022-12-25T20:02:42.262Z,4.01
2022-12-25T20:05:11.010Z,3.99
2022-12-25T20:07:39.640Z,3.99
2022-12-25T20:10:08.431Z,4.00
2022-12-25T20:12:37.062Z,3.99
2022-12-25T20:15:06.365Z,3.95
2022-12-25T20:17:35.147Z,3.85
2022-12-25T20:20:04.603Z,3.78
2022-12-25T20:22:33.502Z,3.72
2022-12-25T20:25:03.713Z,3.70
2022-12-25T20:27:32.467Z,3.67
2022-12-25T20:30:01.285Z,3.63
2022-12-25T20:32:30.196Z,3.60
2022-12-25T20:34:58.858Z,3.59
2022-12-25T20:37:27.539Z,3.62
2022-12-25T20:39:56.437Z,3.62
2022-12-25T20:42:24.989Z,3.56
2022-12-25T20:44:53.602Z,3.52
2022-12-25T20:47:22.042Z,3.51
2022-12-25T20:49:50.625Z,3.52
2022-12-25T20:52:19.237Z,3.51
2022-12-25T20:54:47.816Z,3.49
2022-12-25T20:57:16.312Z,3.47
2022-12-25T20:59:44.952Z,3.43
2022-12-25T21:02:35.568Z,3.39
2022-12-25T21:05:03.114Z,3.38
2022-12-25T21:07:31.698Z,3.37
2022-12-25T21:10:00.366Z,3.37
2022-12-25T21:12:29.310Z,3.36
2022-12-25T21:14:58.030Z,3.36
2022-12-25T21:17:27.126Z,3.33
2022-12-25T21:19:55.731Z,3.28
2022-12-25T21:22:24.318Z,3.23
2022-12-25T21:24:53.628Z,3.20
2022-12-25T21:27:22.215Z,3.15
2022-12-25T21:29:50.597Z,3.11
2022-12-25T21:32:37.355Z,3.05
2022-12-25T21:35:06.220Z,2.97
2022-12-25T21:37:34.706Z,2.89
2022-12-25T21:40:03.669Z,2.81
2022-12-25T21:42:32.257Z,2.73
2022-12-25T21:45:01.469Z,2.65
2022-12-25T21:48:01.606Z,2.56
2022-12-25T21:50:39.509Z,2.51
2022-12-25T21:53:08.351Z,2.47
2022-12-25T21:55:37.039Z,2.42
2022-12-25T21:58:05.848Z,2.37
2022-12-25T22:00:36.821Z,2.31
2022-12-25T22:03:05.519Z,2.28
2022-12-25T22:05:54.941Z,2.28
2022-12-25T22:08:23.409Z,2.31
2022-12-25T22:10:51.861Z,2.34
2022-12-25T22:13:38.838Z,2.38
2022-12-25T22:16:26.482Z,2.44
2022-12-25T22:19:15.192Z,2.50
2022-12-25T22:21:43.755Z,2.56
2022-12-25T22:24:12.357Z,2.62
2022-12-25T22:26:40.983Z,2.67
2022-12-25T22:29:09.541Z,2.70
2022-12-25T22:31:42.724Z,2.76
2022-12-25T22:34:16.718Z,2.75
2022-12-25T22:36:45.301Z,2.71
2022-12-25T22:39:13.918Z,2.69
2022-12-25T22:41:42.580Z,2.66
2022-12-25T22:44:18.743Z,2.65
2022-12-25T22:46:50.638Z,2.65
2022-12-25T22:49:19.302Z,2.62
2022-12-25T22:51:49.670Z,2.57
2022-12-25T22:54:20.022Z,2.50
2022-12-25T22:56:52.398Z,2.37
2022-12-25T22:59:23.043Z,2.21
2022-12-25T23:01:51.870Z,2.13
2022-12-25T23:04:20.963Z,2.12
2022-12-25T23:06:50.058Z,2.14
2022-12-25T23:09:24.863Z,2.16
2022-12-25T23:11:56.477Z,2.19
2022-12-25T23:14:40.799Z,2.23
2022-12-25T23:17:31.860Z,2.27
2022-12-25T23:20:19.891Z,2.23
2022-12-25T23:23:06.808Z,2.18
2022-12-25T23:25:54.207Z,2.17
2022-12-25T23:28:41.138Z,2.16
2022-12-25T23:31:09.914Z,2.19
2022-12-25T23:33:38.443Z,2.19
2022-12-25T23:36:07.249Z,2.21
2022-12-25T23:38:35.833Z,2.23
2022-12-25T23:41:04.456Z,2.22
2022-12-25T23:43:32.950Z,2.18
2022-12-25T23:46:01.491Z,2.15
2022-12-25T23:48:29.919Z,2.09
2022-12-25T23:51:06.359Z,2.07
2022-12-25T23:53:35.544Z,2.06
2022-12-25T23:56:04.435Z,2.03
2022-12-25T23:58:34.380Z,1.99
